sensor_id;sensor_type;location;lat;lon;timestamp;pressure;altitude;pressure_sealevel;temperature;humidity
14120;BME280;7138;49.246;9.100;2023-02-28T00:00:41;99591.63;;;1.14;76.10
14120;BME280;7138;49.246;9.100;2023-02-28T00:03:08;99583.78;;;1.09;75.91
14120;BME280;7138;49.246;9.100;2023-02-28T00:05:34;99587.13;;;1.08;76.28
14120;BME280;7138;49.246;9.100;2023-02-28T00:08:00;99573.59;;;1.09;75.91
14120;BME280;7138;49.246;9.100;2023-02-28T00:10:30;99583.53;;;1.04;76.75
14120;BME280;7138;49.246;9.100;2023-02-28T00:13:01;99579.53;;;1.09;76.71
14120;BME280;7138;49.246;9.100;2023-02-28T00:15:28;99586.81;;;1.02;76.62
14120;BME280;7138;49.246;9.100;2023-02-28T00:17:54;99582.66;;;1.04;76.34
14120;BME280;7138;49.246;9.100;2023-02-28T00:20:20;99578.59;;;1.07;77.30
14120;BME280;7138;49.246;9.100;2023-02-28T00:22:49;99590.44;;;1.07;76.16
14120;BME280;7138;49.246;9.100;2023-02-28T00:25:18;99583.78;;;1.09;76.71
14120;BME280;7138;49.246;9.100;2023-02-28T00:27:45;99589.56;;;1.06;77.08
14120;BME280;7138;49.246;9.100;2023-02-28T00:30:17;99576.78;;;1.05;76.91
14120;BME280;7138;49.246;9.100;2023-02-28T00:32:45;99590.84;;;0.98;77.56
14120;BME280;7138;49.246;9.100;2023-02-28T00:35:11;99580.63;;;0.97;77.45
14120;BME280;7138;49.246;9.100;2023-02-28T00:37:38;99589.66;;;0.92;77.05
14120;BME280;7138;49.246;9.100;2023-02-28T00:40:06;99588.63;;;0.88;77.11
14120;BME280;7138;49.246;9.100;2023-02-28T00:42:33;99588.56;;;0.87;77.92
14120;BME280;7138;49.246;9.100;2023-02-28T00:44:59;99593.41;;;0.82;78.11
14120;BME280;7138;49.246;9.100;2023-02-28T00:47:25;99595.31;;;0.86;78.06
14120;BME280;7138;49.246;9.100;2023-02-28T00:49:53;99593.56;;;0.85;77.94
14120;BME280;7138;49.246;9.100;2023-02-28T00:52:19;99589.91;;;0.80;78.12
14120;BME280;7138;49.246;9.100;2023-02-28T00:54:44;99579.50;;;0.76;78.35
14120;BME280;7138;49.246;9.100;2023-02-28T00:57:10;99583.41;;;0.69;78.82
14120;BME280;7138;49.246;9.100;2023-02-28T00:59:36;99581.59;;;0.67;78.73
14120;BME280;7138;49.246;9.100;2023-02-28T01:02:02;99579.97;;;0.69;79.02
14120;BME280;7138;49.246;9.100;2023-02-28T01:04:28;99580.69;;;0.66;78.88
14120;BME280;7138;49.246;9.100;2023-02-28T01:06:55;99577.44;;;0.69;79.02
14120;BME280;7138;49.246;9.100;2023-02-28T01:09:21;99580.94;;;0.71;78.38
14120;BME280;7138;49.246;9.100;2023-02-28T01:11:47;99575.06;;;0.72;78.90
14120;BME280;7138;49.246;9.100;2023-02-28T01:14:14;99574.91;;;0.69;78.98
14120;BME280;7138;49.246;9.100;2023-02-28T01:16:40;99573.22;;;0.69;78.63
14120;BME280;7138;49.246;9.100;2023-02-28T01:19:06;99581.88;;;0.57;79.42
14120;BME280;7138;49.246;9.100;2023-02-28T01:21:32;99584.50;;;0.58;79.25
14120;BME280;7138;49.246;9.100;2023-02-28T01:24:00;99576.25;;;0.62;78.32
14120;BME280;7138;49.246;9.100;2023-02-28T01:26:26;99581.00;;;0.56;78.68
14120;BME280;7138;49.246;9.100;2023-02-28T01:28:53;99578.56;;;0.58;78.97
14120;BME280;7138;49.246;9.100;2023-02-28T01:31:20;99574.25;;;0.57;79.06
14120;BME280;7138;49.246;9.100;2023-02-28T01:33:47;99575.19;;;0.59;79.16
14120;BME280;7138;49.246;9.100;2023-02-28T01:36:16;99556.69;;;0.45;78.60
14120;BME280;7138;49.246;9.100;2023-02-28T01:38:43;99575.19;;;0.59;78.94
14120;BME280;7138;49.246;9.100;2023-02-28T01:41:16;99583.56;;;0.56;79.11
14120;BME280;7138;49.246;9.100;2023-02-28T01:43:57;99577.59;;;0.55;79.29
14120;BME280;7138;49.246;9.100;2023-02-28T01:46:23;99570.19;;;0.44;79.47
14120;BME280;7138;49.246;9.100;2023-02-28T01:48:54;99580.53;;;0.47;79.98
14120;BME280;7138;49.246;9.100;2023-02-28T01:51:27;99576.16;;;0.44;79.98
14120;BME280;7138;49.246;9.100;2023-02-28T01:54:00;99556.28;;;0.37;79.51
14120;BME280;7138;49.246;9.100;2023-02-28T01:56:33;99572.41;;;0.38;80.17
14120;BME280;7138;49.246;9.100;2023-02-28T01:59:02;99568.19;;;0.38;79.99
14120;BME280;7138;49.246;9.100;2023-02-28T02:01:30;99569.88;;;0.38;79.91
14120;BME280;7138;49.246;9.100;2023-02-28T02:03:59;99558.91;;;0.39;80.10
14120;BME280;7138;49.246;9.100;2023-02-28T02:06:30;99566.22;;;0.33;80.75
14120;BME280;7138;49.246;9.100;2023-02-28T02:08:59;99559.13;;;0.27;80.51
14120;BME280;7138;49.246;9.100;2023-02-28T02:11:27;99554.38;;;0.33;80.05
14120;BME280;7138;49.246;9.100;2023-02-28T02:14:06;99563.91;;;0.21;80.77
14120;BME280;7138;49.246;9.100;2023-02-28T02:16:54;99564.75;;;0.22;80.63
14120;BME280;7138;49.246;9.100;2023-02-28T02:23:07;99561.41;;;0.23;80.81
14120;BME280;7138;49.246;9.100;2023-02-28T02:25:49;99548.53;;;0.20;80.52
14120;BME280;7138;49.246;9.100;2023-02-28T02:29:03;99553.56;;;0.18;80.68
14120;BME280;7138;49.246;9.100;2023-02-28T02:32:13;99546.63;;;0.16;81.25
14120;BME280;7138;49.246;9.100;2023-02-28T02:34:51;99553.56;;;0.18;80.78
14120;BME280;7138;49.246;9.100;2023-02-28T02:37:35;99545.69;;;0.14;81.29
14120;BME280;7138;49.246;9.100;2023-02-28T02:40:13;99541.59;;;0.01;81.30
14120;BME280;7138;49.246;9.100;2023-02-28T02:42:47;99548.59;;;0.05;81.08
14120;BME280;7138;49.246;9.100;2023-02-28T02:45:23;99533.56;;;-0.07;81.27
14120;BME280;7138;49.246;9.100;2023-02-28T02:47:53;99545.81;;;0.00;81.15
14120;BME280;7138;49.246;9.100;2023-02-28T02:50:26;99550.25;;;0.05;81.09
14120;BME280;7138;49.246;9.100;2023-02-28T02:53:00;99543.25;;;0.00;81.17
14120;BME280;7138;49.246;9.100;2023-02-28T02:55:29;99544.84;;;-0.02;81.35
14120;BME280;7138;49.246;9.100;2023-02-28T02:58:01;99533.97;;;0.01;80.97
14120;BME280;7138;49.246;9.100;2023-02-28T03:00:33;99532.47;;;0.05;81.24
14120;BME280;7138;49.246;9.100;2023-02-28T03:03:01;99533.09;;;0.00;80.74
14120;BME280;7138;49.246;9.100;2023-02-28T03:05:34;99539.16;;;0.03;80.82
14120;BME280;7138;49.246;9.100;2023-02-28T03:08:04;99542.47;;;0.02;81.01
14120;BME280;7138;49.246;9.100;2023-02-28T03:10:38;99538.19;;;0.00;80.85
14120;BME280;7138;49.246;9.100;2023-02-28T03:16:48;99546.78;;;-0.12;81.81
14120;BME280;7138;49.246;9.100;2023-02-28T03:19:38;99540.69;;;-0.16;81.95
14120;BME280;7138;49.246;9.100;2023-02-28T03:22:40;99539.72;;;-0.18;81.96
14120;BME280;7138;49.246;9.100;2023-02-28T03:25:19;99544.03;;;-0.17;81.81
14120;BME280;7138;49.246;9.100;2023-02-28T03:27:55;99538.00;;;-0.19;81.65
14120;BME280;7138;49.246;9.100;2023-02-28T03:30:35;99532.75;;;-0.22;81.97
14120;BME280;7138;49.246;9.100;2023-02-28T03:33:08;99535.28;;;-0.22;82.14
14120;BME280;7138;49.246;9.100;2023-02-28T03:35:40;99531.59;;;-0.27;82.73
14120;BME280;7138;49.246;9.100;2023-02-28T03:38:14;99538.09;;;-0.32;82.69
14120;BME280;7138;49.246;9.100;2023-02-28T03:40:47;99531.94;;;-0.21;82.16
14120;BME280;7138;49.246;9.100;2023-02-28T03:43:21;99535.44;;;-0.19;82.35
14120;BME280;7138;49.246;9.100;2023-02-28T03:45:50;99525.63;;;-0.27;82.65
14120;BME280;7138;49.246;9.100;2023-02-28T03:48:21;99532.03;;;-0.19;82.54
14120;BME280;7138;49.246;9.100;2023-02-28T03:50:54;99532.19;;;-0.16;82.52
14120;BME280;7138;49.246;9.100;2023-02-28T03:53:29;99533.75;;;-0.18;82.60
14120;BME280;7138;49.246;9.100;2023-02-28T03:56:02;99539.56;;;-0.21;82.41
14120;BME280;7138;49.246;9.100;2023-02-28T03:58:39;99535.44;;;-0.19;82.95
14120;BME280;7138;49.246;9.100;2023-02-28T04:01:10;99539.66;;;-0.19;82.91
14120;BME280;7138;49.246;9.100;2023-02-28T04:03:39;99534.97;;;-0.12;82.57
14120;BME280;7138;49.246;9.100;2023-02-28T04:06:08;99533.41;;;-0.10;82.63
14120;BME280;7138;49.246;9.100;2023-02-28T04:08:40;99528.69;;;-0.18;83.11
14120;BME280;7138;49.246;9.100;2023-02-28T04:11:20;99540.69;;;-0.16;82.89
14120;BME280;7138;49.246;9.100;2023-02-28T04:13:47;99529.72;;;-0.15;82.45
14120;BME280;7138;49.246;9.100;2023-02-28T04:16:13;99545.31;;;-0.09;82.91
14120;BME280;7138;49.246;9.100;2023-02-28T04:18:39;99538.72;;;-0.05;82.61
14120;BME280;7138;49.246;9.100;2023-02-28T04:21:05;99534.41;;;-0.06;82.26
14120;BME280;7138;49.246;9.100;2023-02-28T04:23:32;99544.13;;;0.01;82.40
14120;BME280;7138;49.246;9.100;2023-02-28T04:25:59;99540.38;;;-0.06;82.53
14120;BME280;7138;49.246;9.100;2023-02-28T04:28:26;99537.13;;;-0.03;82.33
14120;BME280;7138;49.246;9.100;2023-02-28T04:30:55;99543.09;;;-0.03;82.83
14120;BME280;7138;49.246;9.100;2023-02-28T04:33:21;99543.97;;;-0.02;82.78
14120;BME280;7138;49.246;9.100;2023-02-28T04:35:47;99549.16;;;-0.01;82.56
14120;BME280;7138;49.246;9.100;2023-02-28T04:38:13;99544.41;;;0.06;82.45
14120;BME280;7138;49.246;9.100;2023-02-28T04:40:38;99544.41;;;0.06;82.55
14120;BME280;7138;49.246;9.100;2023-02-28T04:43:06;99542.97;;;0.11;82.06
14120;BME280;7138;49.246;9.100;2023-02-28T04:45:31;99546.47;;;0.13;82.17
14120;BME280;7138;49.246;9.100;2023-02-28T04:47:59;99533.13;;;0.17;81.96
14120;BME280;7138;49.246;9.100;2023-02-28T04:50:25;99545.44;;;0.09;82.31
14120;BME280;7138;49.246;9.100;2023-02-28T04:52:51;99538.59;;;0.08;82.03
14120;BME280;7138;49.246;9.100;2023-02-28T04:55:16;99541.03;;;0.07;82.22
14120;BME280;7138;49.246;9.100;2023-02-28T04:57:42;99541.16;;;0.08;82.21
14120;BME280;7138;49.246;9.100;2023-02-28T05:00:11;99541.84;;;0.06;82.39
14120;BME280;7138;49.246;9.100;2023-02-28T05:02:38;99551.16;;;0.05;82.22
14120;BME280;7138;49.246;9.100;2023-02-28T05:05:05;99555.19;;;0.02;82.51
14120;BME280;7138;49.246;9.100;2023-02-28T05:07:31;99550.19;;;0.03;81.98
14120;BME280;7138;49.246;9.100;2023-02-28T05:09:57;99557.66;;;0.00;81.84
14120;BME280;7138;49.246;9.100;2023-02-28T05:12:23;99548.19;;;-0.03;82.24
14120;BME280;7138;49.246;9.100;2023-02-28T05:14:49;99559.22;;;-0.02;82.57
14120;BME280;7138;49.246;9.100;2023-02-28T05:17:16;99546.13;;;-0.10;82.72
14120;BME280;7138;49.246;9.100;2023-02-28T05:19:42;99556.69;;;-0.02;82.40
14120;BME280;7138;49.246;9.100;2023-02-28T05:22:13;99550.81;;;-0.01;82.53
14120;BME280;7138;49.246;9.100;2023-02-28T05:24:40;99557.47;;;-0.03;82.63
14120;BME280;7138;49.246;9.100;2023-02-28T05:27:08;99556.69;;;-0.02;82.72
14120;BME280;7138;49.246;9.100;2023-02-28T05:29:34;99553.09;;;-0.06;82.64
14120;BME280;7138;49.246;9.100;2023-02-28T05:32:09;99559.22;;;-0.02;82.51
14120;BME280;7138;49.246;9.100;2023-02-28T05:34:38;99558.50;;;0.00;82.71
14120;BME280;7138;49.246;9.100;2023-02-28T05:37:04;99558.72;;;-0.11;82.52
14120;BME280;7138;49.246;9.100;2023-02-28T05:39:30;99558.31;;;-0.19;83.02
14120;BME280;7138;49.246;9.100;2023-02-28T05:41:56;99563.47;;;-0.17;83.09
14120;BME280;7138;49.246;9.100;2023-02-28T05:44:21;99563.06;;;-0.25;83.34
14120;BME280;7138;49.246;9.100;2023-02-28T05:46:47;99564.78;;;-0.24;83.17
14120;BME280;7138;49.246;9.100;2023-02-28T05:49:13;99569.09;;;-0.23;83.03
14120;BME280;7138;49.246;9.100;2023-02-28T05:51:40;99562.19;;;-0.25;83.09
14120;BME280;7138;49.246;9.100;2023-02-28T05:54:07;99570.38;;;-0.15;82.81
14120;BME280;7138;49.246;9.100;2023-02-28T05:56:33;99568.88;;;-0.11;82.76
14120;BME280;7138;49.246;9.100;2023-02-28T05:59:01;99563.63;;;-0.14;83.05
14120;BME280;7138;49.246;9.100;2023-02-28T06:01:33;99566.97;;;-0.15;82.93
14120;BME280;7138;49.246;9.100;2023-02-28T06:04:00;99568.28;;;-0.07;82.61
14120;BME280;7138;49.246;9.100;2023-02-28T06:06:27;99565.91;;;-0.04;82.26
14120;BME280;7138;49.246;9.100;2023-02-28T06:08:54;99568.09;;;-0.10;82.39
14120;BME280;7138;49.246;9.100;2023-02-28T06:11:20;99566.34;;;-0.11;82.80
14120;BME280;7138;49.246;9.100;2023-02-28T06:13:46;99561.03;;;-0.16;82.67
14120;BME280;7138;49.246;9.100;2023-02-28T06:16:12;99569.66;;;-0.12;82.85
14120;BME280;7138;49.246;9.100;2023-02-28T06:18:38;99567.84;;;-0.15;82.71
14120;BME280;7138;49.246;9.100;2023-02-28T06:21:04;99572.03;;;-0.15;82.73
14120;BME280;7138;49.246;9.100;2023-02-28T06:23:30;99563.75;;;-0.13;82.86
14120;BME280;7138;49.246;9.100;2023-02-28T06:25:57;99580.88;;;-0.09;82.47
14120;BME280;7138;49.246;9.100;2023-02-28T06:28:24;99584.06;;;-0.13;82.69
14120;BME280;7138;49.246;9.100;2023-02-28T06:30:50;99578.53;;;-0.20;82.48
14120;BME280;7138;49.246;9.100;2023-02-28T06:33:16;99581.41;;;-0.14;82.15
14120;BME280;7138;49.246;9.100;2023-02-28T06:35:44;99582.13;;;-0.17;82.53
14120;BME280;7138;49.246;9.100;2023-02-28T06:38:10;99579.75;;;-0.14;82.76
14120;BME280;7138;49.246;9.100;2023-02-28T06:40:36;99579.94;;;-0.11;82.59
14120;BME280;7138;49.246;9.100;2023-02-28T06:43:04;99580.25;;;-0.05;82.38
14120;BME280;7138;49.246;9.100;2023-02-28T06:45:30;99582.88;;;-0.03;82.31
14120;BME280;7138;49.246;9.100;2023-02-28T06:47:55;99578.22;;;0.05;82.35
14120;BME280;7138;49.246;9.100;2023-02-28T06:50:21;99588.56;;;0.08;81.90
14120;BME280;7138;49.246;9.100;2023-02-28T06:52:47;99587.63;;;0.06;81.99
14120;BME280;7138;49.246;9.100;2023-02-28T06:55:13;99587.34;;;0.01;82.28
14120;BME280;7138;49.246;9.100;2023-02-28T06:57:39;99595.25;;;0.06;82.70
14120;BME280;7138;49.246;9.100;2023-02-28T07:00:10;99586.03;;;0.08;82.08
14120;BME280;7138;49.246;9.100;2023-02-28T07:02:37;99586.50;;;0.17;82.24
14120;BME280;7138;49.246;9.100;2023-02-28T07:05:04;99593.59;;;0.22;81.47
14120;BME280;7138;49.246;9.100;2023-02-28T07:07:30;99605.13;;;0.32;81.41
14120;BME280;7138;49.246;9.100;2023-02-28T07:09:56;99594.91;;;0.30;81.46
14120;BME280;7138;49.246;9.100;2023-02-28T07:12:22;99606.41;;;0.40;81.39
14120;BME280;7138;49.246;9.100;2023-02-28T07:14:48;99603.50;;;0.48;81.02
14120;BME280;7138;49.246;9.100;2023-02-28T07:17:15;99608.09;;;0.55;80.93
14120;BME280;7138;49.246;9.100;2023-02-28T07:19:41;99606.69;;;0.61;80.42
14120;BME280;7138;49.246;9.100;2023-02-28T07:22:07;99606.38;;;0.71;80.83
14120;BME280;7138;49.246;9.100;2023-02-28T07:24:33;99606.38;;;0.71;80.46
14120;BME280;7138;49.246;9.100;2023-02-28T07:26:59;99604.47;;;0.83;79.89
14120;BME280;7138;49.246;9.100;2023-02-28T07:29:25;99612.03;;;0.81;79.20
14120;BME280;7138;49.246;9.100;2023-02-28T07:31:51;99611.69;;;0.91;79.59
14120;BME280;7138;49.246;9.100;2023-02-28T07:34:20;99592.16;;;0.90;79.39
14120;BME280;7138;49.246;9.100;2023-02-28T07:36:46;99608.06;;;1.02;79.65
14120;BME280;7138;49.246;9.100;2023-02-28T07:39:11;99608.13;;;1.04;78.93
14120;BME280;7138;49.246;9.100;2023-02-28T07:41:37;99600.53;;;1.22;79.14
14120;BME280;7138;49.246;9.100;2023-02-28T07:44:09;99597.50;;;1.29;79.00
14120;BME280;7138;49.246;9.100;2023-02-28T07:46:34;99602.44;;;1.26;78.27
14120;BME280;7138;49.246;9.100;2023-02-28T07:49:02;99608.56;;;1.29;78.68
14120;BME280;7138;49.246;9.100;2023-02-28T07:51:30;99596.22;;;1.37;77.92
14120;BME280;7138;49.246;9.100;2023-02-28T07:53:57;99607.06;;;1.50;77.53
14120;BME280;7138;49.246;9.100;2023-02-28T07:56:23;99599.84;;;1.58;78.82
14120;BME280;7138;49.246;9.100;2023-02-28T07:58:49;99601.94;;;1.67;76.99
14120;BME280;7138;49.246;9.100;2023-02-28T08:01:16;99611.25;;;1.66;77.63
14120;BME280;7138;49.246;9.100;2023-02-28T08:03:42;99612.13;;;1.67;76.69
14120;BME280;7138;49.246;9.100;2023-02-28T08:06:16;99607.34;;;1.73;77.00
14120;BME280;7138;49.246;9.100;2023-02-28T08:08:44;99617.09;;;1.81;76.76
14120;BME280;7138;49.246;9.100;2023-02-28T08:11:10;99612.34;;;1.71;75.86
14120;BME280;7138;49.246;9.100;2023-02-28T08:13:35;99608.81;;;1.85;75.68
14120;BME280;7138;49.246;9.100;2023-02-28T08:16:02;99607.34;;;1.90;75.79
14120;BME280;7138;49.246;9.100;2023-02-28T08:18:28;99608.22;;;1.91;75.83
14120;BME280;7138;49.246;9.100;2023-02-28T08:20:54;99613.91;;;1.85;76.24
14120;BME280;7138;49.246;9.100;2023-02-28T08:23:20;99612.88;;;1.99;75.38
14120;BME280;7138;49.246;9.100;2023-02-28T08:25:53;99604.28;;;1.97;75.89
14120;BME280;7138;49.246;9.100;2023-02-28T08:28:19;99610.97;;;1.95;75.48
14120;BME280;7138;49.246;9.100;2023-02-28T08:30:45;99607.78;;;1.99;75.70
14120;BME280;7138;49.246;9.100;2023-02-28T08:33:10;99616.06;;;1.95;75.85
14120;BME280;7138;49.246;9.100;2023-02-28T08:35:36;99615.03;;;1.92;75.73
14120;BME280;7138;49.246;9.100;2023-02-28T08:38:03;99610.47;;;2.02;75.24
14120;BME280;7138;49.246;9.100;2023-02-28T08:40:28;99615.72;;;2.05;75.21
14120;BME280;7138;49.246;9.100;2023-02-28T08:42:56;99598.31;;;2.14;74.93
14120;BME280;7138;49.246;9.100;2023-02-28T08:45:22;99611.34;;;2.20;75.99
14120;BME280;7138;49.246;9.100;2023-02-28T08:47:47;99610.31;;;2.17;75.27
14120;BME280;7138;49.246;9.100;2023-02-28T08:50:13;99612.22;;;2.21;74.71
14120;BME280;7138;49.246;9.100;2023-02-28T08:52:42;99614.78;;;2.40;75.51
14120;BME280;7138;49.246;9.100;2023-02-28T08:55:09;99612.53;;;2.46;75.08
14120;BME280;7138;49.246;9.100;2023-02-28T08:57:35;99608.19;;;2.63;75.01
14120;BME280;7138;49.246;9.100;2023-02-28T09:00:04;99619.63;;;2.71;75.02
14120;BME280;7138;49.246;9.100;2023-02-28T09:02:30;99610.88;;;2.66;74.39
14120;BME280;7138;49.246;9.100;2023-02-28T09:04:55;99613.09;;;2.78;74.07
14120;BME280;7138;49.246;9.100;2023-02-28T09:07:21;99604.84;;;2.83;74.43
14120;BME280;7138;49.246;9.100;2023-02-28T09:09:47;99608.00;;;2.97;74.51
14120;BME280;7138;49.246;9.100;2023-02-28T09:12:19;99607.78;;;3.11;73.04
14120;BME280;7138;49.246;9.100;2023-02-28T09:14:45;99604.13;;;3.25;73.73
14120;BME280;7138;49.246;9.100;2023-02-28T09:17:12;99598.63;;;3.36;73.18
14120;BME280;7138;49.246;9.100;2023-02-28T09:19:38;99604.53;;;3.35;72.38
14120;BME280;7138;49.246;9.100;2023-02-28T09:22:04;99606.56;;;3.22;71.82
14120;BME280;7138;49.246;9.100;2023-02-28T09:24:30;99611.94;;;3.28;71.99
14120;BME280;7138;49.246;9.100;2023-02-28T09:26:57;99612.19;;;3.35;71.45
14120;BME280;7138;49.246;9.100;2023-02-28T09:29:23;99601.44;;;3.42;71.38
14120;BME280;7138;49.246;9.100;2023-02-28T09:31:48;99604.38;;;3.51;71.28
14120;BME280;7138;49.246;9.100;2023-02-28T09:34:16;99609.06;;;3.61;71.37
14120;BME280;7138;49.246;9.100;2023-02-28T09:36:43;99608.72;;;3.74;70.98
14120;BME280;7138;49.246;9.100;2023-02-28T09:39:09;99599.59;;;3.79;70.21
14120;BME280;7138;49.246;9.100;2023-02-28T09:41:39;99603.88;;;3.80;70.71
14120;BME280;7138;49.246;9.100;2023-02-28T09:44:19;99602.56;;;3.90;70.52
14120;BME280;7138;49.246;9.100;2023-02-28T09:46:51;99607.31;;;4.01;70.74
14120;BME280;7138;49.246;9.100;2023-02-28T09:49:26;99615.47;;;4.13;70.11
14120;BME280;7138;49.246;9.100;2023-02-28T09:52:00;99606.97;;;4.14;70.02
14120;BME280;7138;49.246;9.100;2023-02-28T09:54:30;99602.66;;;4.35;70.47
14120;BME280;7138;49.246;9.100;2023-02-28T09:57:01;99610.47;;;4.38;69.46
14120;BME280;7138;49.246;9.100;2023-02-28T09:59:41;99612.16;;;4.38;68.28
14120;BME280;7138;49.246;9.100;2023-02-28T10:02:35;99614.09;;;4.44;68.42
14120;BME280;7138;49.246;9.100;2023-02-28T10:05:11;99609.81;;;4.44;68.70
14120;BME280;7138;49.246;9.100;2023-02-28T10:08:08;99611.22;;;4.58;69.02
14120;BME280;7138;49.246;9.100;2023-02-28T10:10:40;99614.38;;;4.51;68.63
14120;BME280;7138;49.246;9.100;2023-02-28T10:13:16;99616.94;;;4.73;69.14
14120;BME280;7138;49.246;9.100;2023-02-28T10:15:46;99608.91;;;4.88;68.52
14120;BME280;7138;49.246;9.100;2023-02-28T10:18:22;99613.69;;;5.01;67.62
14120;BME280;7138;49.246;9.100;2023-02-28T10:20:53;99615.38;;;5.01;66.83
14120;BME280;7138;49.246;9.100;2023-02-28T10:23:26;99618.84;;;5.03;67.17
14120;BME280;7138;49.246;9.100;2023-02-28T10:25:59;99625.50;;;4.97;66.44
14120;BME280;7138;49.246;9.100;2023-02-28T10:28:26;99621.41;;;4.79;65.51
14120;BME280;7138;49.246;9.100;2023-02-28T10:30:55;99617.81;;;4.74;66.11
14120;BME280;7138;49.246;9.100;2023-02-28T10:33:24;99622.97;;;4.75;67.10
14120;BME280;7138;49.246;9.100;2023-02-28T10:35:55;99625.22;;;4.90;67.12
14120;BME280;7138;49.246;9.100;2023-02-28T10:38:24;99614.47;;;5.00;69.11
14120;BME280;7138;49.246;9.100;2023-02-28T10:40:51;99621.84;;;5.15;66.13
14120;BME280;7138;49.246;9.100;2023-02-28T10:43:23;99610.41;;;5.29;66.33
14120;BME280;7138;49.246;9.100;2023-02-28T10:45:58;99618.34;;;5.36;65.65
14120;BME280;7138;49.246;9.100;2023-02-28T10:48:32;99617.44;;;5.34;65.49
14120;BME280;7138;49.246;9.100;2023-02-28T10:51:00;99614.66;;;5.53;66.53
14120;BME280;7138;49.246;9.100;2023-02-28T10:53:34;99607.63;;;5.73;65.98
14120;BME280;7138;49.246;9.100;2023-02-28T10:56:05;99603.72;;;5.84;66.03
14120;BME280;7138;49.246;9.100;2023-02-28T10:58:48;99603.16;;;5.93;65.66
14120;BME280;7138;49.246;9.100;2023-02-28T11:01:18;99614.56;;;6.01;65.13
14120;BME280;7138;49.246;9.100;2023-02-28T11:03:44;99611.03;;;5.97;65.38
14120;BME280;7138;49.246;9.100;2023-02-28T11:06:18;99593.94;;;5.98;64.95
14120;BME280;7138;49.246;9.100;2023-02-28T11:08:48;99600.34;;;6.11;65.70
14120;BME280;7138;49.246;9.100;2023-02-28T11:11:16;99604.78;;;6.16;64.01
14120;BME280;7138;49.246;9.100;2023-02-28T11:13:45;99601.09;;;6.35;64.67
14120;BME280;7138;49.246;9.100;2023-02-28T11:16:14;99604.50;;;6.35;64.12
14120;BME280;7138;49.246;9.100;2023-02-28T11:18:47;99603.25;;;6.49;63.99
14120;BME280;7138;49.246;9.100;2023-02-28T11:21:23;99593.94;;;6.53;63.31
14120;BME280;7138;49.246;9.100;2023-02-28T11:23:56;99589.94;;;6.63;62.90
14120;BME280;7138;49.246;9.100;2023-02-28T11:26:38;99590.53;;;6.54;62.12
14120;BME280;7138;49.246;9.100;2023-02-28T11:29:20;99596.88;;;6.38;62.41
14120;BME280;7138;49.246;9.100;2023-02-28T11:32:11;99596.06;;;6.39;62.38
14120;BME280;7138;49.246;9.100;2023-02-28T11:34:39;99597.75;;;6.37;62.89
14120;BME280;7138;49.246;9.100;2023-02-28T11:37:15;99595.28;;;6.42;62.89
14120;BME280;7138;49.246;9.100;2023-02-28T11:39:43;99596.63;;;6.29;64.03
14120;BME280;7138;49.246;9.100;2023-02-28T11:42:34;99589.59;;;6.24;62.98
14120;BME280;7138;49.246;9.100;2023-02-28T11:45:20;99594.97;;;6.31;62.95
14120;BME280;7138;49.246;9.100;2023-02-28T11:47:58;99597.88;;;6.14;63.05
14120;BME280;7138;49.246;9.100;2023-02-28T11:50:44;99604.09;;;5.95;63.41
14120;BME280;7138;49.246;9.100;2023-02-28T11:53:24;99607.56;;;5.95;63.53
14120;BME280;7138;49.246;9.100;2023-02-28T11:55:59;99599.16;;;6.01;63.70
14120;BME280;7138;49.246;9.100;2023-02-28T11:58:42;99600.47;;;5.88;64.05
14120;BME280;7138;49.246;9.100;2023-02-28T12:01:27;99601.69;;;5.74;63.92
14120;BME280;7138;49.246;9.100;2023-02-28T12:04:12;99593.59;;;5.62;63.72
14120;BME280;7138;49.246;9.100;2023-02-28T12:06:50;99603.69;;;5.58;64.18
14120;BME280;7138;49.246;9.100;2023-02-28T12:09:43;99589.00;;;5.53;64.32
14120;BME280;7138;49.246;9.100;2023-02-28T12:12:26;99590.94;;;5.59;64.02
14120;BME280;7138;49.246;9.100;2023-02-28T12:15:27;99587.31;;;5.54;64.19
14120;BME280;7138;49.246;9.100;2023-02-28T12:18:07;99609.38;;;5.49;64.03
14120;BME280;7138;49.246;9.100;2023-02-28T12:20:44;99609.38;;;5.49;64.58
14120;BME280;7138;49.246;9.100;2023-02-28T12:23:38;99606.66;;;5.44;64.68
14120;BME280;7138;49.246;9.100;2023-02-28T12:26:19;99596.56;;;5.49;64.45
14120;BME280;7138;49.246;9.100;2023-02-28T12:28:56;99597.69;;;5.57;64.94
14120;BME280;7138;49.246;9.100;2023-02-28T12:31:30;99590.06;;;5.59;64.32
14120;BME280;7138;49.246;9.100;2023-02-28T12:34:05;99592.25;;;5.73;65.74
14120;BME280;7138;49.246;9.100;2023-02-28T12:36:36;99581.69;;;5.89;64.55
14120;BME280;7138;49.246;9.100;2023-02-28T12:39:10;99578.34;;;5.92;64.47
14120;BME280;7138;49.246;9.100;2023-02-28T12:41:45;99580.50;;;6.07;64.58
14120;BME280;7138;49.246;9.100;2023-02-28T12:44:17;99578.81;;;6.07;63.79
14120;BME280;7138;49.246;9.100;2023-02-28T12:46:50;99567.19;;;6.18;65.07
14120;BME280;7138;49.246;9.100;2023-02-28T12:49:23;99577.50;;;6.20;64.88
14120;BME280;7138;49.246;9.100;2023-02-28T12:51:52;99574.69;;;6.12;63.65
14120;BME280;7138;49.246;9.100;2023-02-28T12:54:25;99577.78;;;6.02;63.21
14120;BME280;7138;49.246;9.100;2023-02-28T12:57:07;99578.28;;;5.90;63.10
14120;BME280;7138;49.246;9.100;2023-02-28T12:59:41;99567.13;;;5.90;64.07
14120;BME280;7138;49.246;9.100;2023-02-28T13:03:01;99567.13;;;5.90;64.53
14120;BME280;7138;49.246;9.100;2023-02-28T13:06:05;99574.09;;;5.92;63.13
14120;BME280;7138;49.246;9.100;2023-02-28T13:09:05;99566.06;;;5.83;63.53
14120;BME280;7138;49.246;9.100;2023-02-28T13:11:40;99567.56;;;5.77;64.46
14120;BME280;7138;49.246;9.100;2023-02-28T13:14:23;99566.19;;;5.86;63.91
14120;BME280;7138;49.246;9.100;2023-02-28T13:17:01;99567.22;;;5.93;63.33
14120;BME280;7138;49.246;9.100;2023-02-28T13:19:31;99563.06;;;5.96;63.58
14120;BME280;7138;49.246;9.100;2023-02-28T13:21:58;99566.28;;;5.89;63.29
14120;BME280;7138;49.246;9.100;2023-02-28T13:24:45;99559.00;;;6.03;64.93
14120;BME280;7138;49.246;9.100;2023-02-28T13:27:35;99561.63;;;6.04;63.85
14120;BME280;7138;49.246;9.100;2023-02-28T13:31:01;99566.72;;;6.03;63.07
14120;BME280;7138;49.246;9.100;2023-02-28T13:33:29;99568.31;;;5.99;63.91
14120;BME280;7138;49.246;9.100;2023-02-28T13:36:23;99558.13;;;6.02;63.97
14120;BME280;7138;49.246;9.100;2023-02-28T13:38:51;99552.22;;;6.05;62.92
14120;BME280;7138;49.246;9.100;2023-02-28T13:41:46;99549.75;;;6.08;63.60
14120;BME280;7138;49.246;9.100;2023-02-28T13:44:17;99554.22;;;6.14;63.34
14120;BME280;7138;49.246;9.100;2023-02-28T13:47:34;99551.94;;;6.23;62.87
14120;BME280;7138;49.246;9.100;2023-02-28T13:50:21;99549.47;;;6.27;63.21